Time;durP1;ratioP1;P1;durP2;ratioP2;P2;SDS_P1;SDS_P2;PMS_P1;PMS_P2;Temp;Humidity;BMP_temperature;BMP_pressure;BME280_temperature;BME280_humidity;BME280_pressure;Samples;Min_cycle;Max_cycle;Signal;HPM_P1;HPM_P2
2024/03/18 00:01:51;;;;;;;7.60;3.57;;;1.20;99.90;;;;;;5010017;28;20430;-63
2024/03/18 00:04:16;;;;;;;6.20;4.00;;;1.10;99.90;;;;;;5010279;28;20237;-63
2024/03/18 00:06:42;;;;;;;6.93;3.60;;;1.10;99.90;;;;;;5010370;28;20768;-62
2024/03/18 00:09:08;;;;;;;6.43;4.30;;;1.10;99.90;;;;;;5002048;28;20208;-63
2024/03/18 00:11:33;;;;;;;7.97;3.90;;;1.00;99.90;;;;;;5010359;28;20188;-61
2024/03/18 00:13:59;;;;;;;5.50;4.10;;;1.00;99.90;;;;;;5009808;28;20798;-62
2024/03/18 00:16:25;;;;;;;7.53;4.47;;;0.90;99.90;;;;;;5010069;28;20211;-62
2024/03/18 00:18:51;;;;;;;7.33;4.50;;;0.90;99.90;;;;;;5009606;28;20231;-63
2024/03/18 00:21:17;;;;;;;6.43;3.70;;;0.90;99.90;;;;;;5010195;28;20539;-65
2024/03/18 00:23:43;;;;;;;7.43;4.10;;;0.90;99.90;;;;;;5010110;28;20423;-65
2024/03/18 00:26:09;;;;;;;4.43;3.90;;;0.90;99.90;;;;;;5001621;28;20570;-63
2024/03/18 00:28:34;;;;;;;7.60;3.17;;;0.90;99.90;;;;;;5009639;28;20521;-63
2024/03/18 00:31:00;;;;;;;8.17;4.10;;;0.90;99.90;;;;;;5009419;28;20184;-63
2024/03/18 00:33:25;;;;;;;6.20;3.97;;;0.90;99.90;;;;;;5009684;28;20295;-62
2024/03/18 00:35:58;;;;;;;11.50;3.93;;;0.80;99.90;;;;;;5009230;28;20214;-62
2024/03/18 00:38:24;;;;;;;6.33;4.03;;;0.80;99.90;;;;;;5009864;28;20618;-63
2024/03/18 00:40:56;;;;;;;6.90;3.50;;;0.80;99.90;;;;;;5009942;28;20424;-63
2024/03/18 00:43:22;;;;;;;5.63;3.73;;;0.80;99.90;;;;;;5010415;28;20781;-62
2024/03/18 00:45:51;;;;;;;4.97;3.43;;;0.80;99.90;;;;;;5009093;28;20518;-63
2024/03/18 00:48:16;;;;;;;6.97;3.90;;;0.80;99.90;;;;;;5008791;28;20546;-62
2024/03/18 00:50:42;;;;;;;4.87;3.40;;;0.80;99.90;;;;;;5009602;28;20522;-61
2024/03/18 00:53:08;;;;;;;4.93;3.00;;;0.80;99.90;;;;;;5009262;28;20180;-63
2024/03/18 00:55:34;;;;;;;5.00;3.43;;;0.70;99.90;;;;;;5009304;28;20567;-63
2024/03/18 00:57:59;;;;;;;5.10;3.80;;;0.70;99.90;;;;;;5009208;28;20188;-63
2024/03/18 01:00:25;;;;;;;6.57;4.03;;;0.70;99.90;;;;;;5009346;28;20434;-62
2024/03/18 01:02:53;;;;;;;8.10;3.87;;;0.70;99.90;;;;;;5009309;28;20261;-65
2024/03/18 01:05:19;;;;;;;3.43;3.13;;;0.70;99.90;;;;;;5010493;28;20295;-62
2024/03/18 01:07:45;;;;;;;6.70;3.93;;;0.70;99.90;;;;;;5009906;28;20432;-63
2024/03/18 01:10:11;;;;;;;5.87;3.27;;;0.60;99.90;;;;;;5001033;28;20442;-63
2024/03/18 01:12:37;;;;;;;3.97;3.57;;;0.60;99.90;;;;;;5009129;28;20503;-63
2024/03/18 01:15:03;;;;;;;12.47;3.80;;;0.60;99.90;;;;;;5008577;28;20807;-63
2024/03/18 01:17:30;;;;;;;6.67;3.40;;;0.60;99.90;;;;;;5009102;28;20199;-64
2024/03/18 01:19:55;;;;;;;5.67;3.57;;;0.50;99.90;;;;;;5008865;28;20462;-63
2024/03/18 01:22:21;;;;;;;5.13;3.30;;;0.50;99.90;;;;;;5009266;28;20436;-62
2024/03/18 01:24:47;;;;;;;6.50;5.30;;;0.50;99.90;;;;;;5008862;28;20187;-61
2024/03/18 01:27:12;;;;;;;10.30;3.57;;;0.50;99.90;;;;;;5001004;28;20180;-61
2024/03/18 01:29:38;;;;;;;4.60;4.20;;;0.50;99.90;;;;;;5008610;28;20639;-61
2024/03/18 01:32:04;;;;;;;5.00;3.27;;;0.50;99.90;;;;;;5008780;28;20639;-61
2024/03/18 01:34:29;;;;;;;4.37;3.93;;;0.50;99.90;;;;;;5008896;28;20200;-62
2024/03/18 01:36:55;;;;;;;5.80;3.50;;;0.40;99.90;;;;;;5008786;28;20514;-63
2024/03/18 01:39:20;;;;;;;3.87;3.30;;;0.40;99.90;;;;;;5008832;28;20894;-63
2024/03/18 01:41:47;;;;;;;3.53;3.07;;;0.40;99.90;;;;;;5008767;28;20181;-63
2024/03/18 01:44:14;;;;;;;5.77;3.43;;;0.30;99.90;;;;;;5008353;28;20212;-63
2024/03/18 01:46:39;;;;;;;7.40;3.60;;;0.30;99.90;;;;;;5008899;28;20468;-63
2024/03/18 01:49:05;;;;;;;5.70;3.70;;;0.30;99.90;;;;;;5008336;28;20454;-63
2024/03/18 01:51:31;;;;;;;5.90;3.50;;;0.30;99.90;;;;;;5009003;28;20317;-65
2024/03/18 01:53:57;;;;;;;10.50;4.53;;;0.30;99.90;;;;;;5008691;28;20211;-61
2024/03/18 01:56:24;;;;;;;6.53;3.60;;;0.30;99.90;;;;;;5008987;28;20445;-62
2024/03/18 01:58:49;;;;;;;3.97;2.90;;;0.30;99.90;;;;;;5010729;28;20526;-63
2024/03/18 02:01:15;;;;;;;4.77;3.43;;;0.30;99.90;;;;;;5012416;28;20518;-64
2024/03/18 02:03:41;;;;;;;7.20;3.87;;;0.30;99.90;;;;;;5012614;28;20188;-62
2024/03/18 02:06:07;;;;;;;6.30;3.60;;;0.30;99.90;;;;;;5011177;28;20437;-62
2024/03/18 02:08:35;;;;;;;8.03;4.30;;;0.20;99.90;;;;;;5020412;28;20547;-64
2024/03/18 02:11:01;;;;;;;6.70;4.20;;;0.20;99.90;;;;;;5013038;28;20523;-62
2024/03/18 02:13:27;;;;;;;4.20;3.33;;;0.20;99.90;;;;;;5012411;28;20488;-63
2024/03/18 02:15:52;;;;;;;5.63;3.67;;;0.20;99.90;;;;;;4994071;28;20176;-63
2024/03/18 02:18:18;;;;;;;6.77;2.97;;;0.20;99.90;;;;;;5012193;28;20272;-63
2024/03/18 02:20:43;;;;;;;3.47;3.00;;;0.20;99.90;;;;;;5012125;28;20549;-63
2024/03/18 02:23:09;;;;;;;9.00;3.30;;;0.30;99.90;;;;;;5011877;28;20176;-63
2024/03/18 02:25:36;;;;;;;3.53;3.03;;;0.30;99.90;;;;;;5011987;28;20173;-62
2024/03/18 02:28:01;;;;;;;3.90;2.67;;;0.20;99.90;;;;;;5011826;28;20438;-62
2024/03/18 02:30:27;;;;;;;4.17;3.43;;;0.20;99.90;;;;;;5012134;28;20454;-64
2024/03/18 02:32:53;;;;;;;6.77;3.50;;;0.20;99.90;;;;;;5011941;28;20177;-64
2024/03/18 02:35:18;;;;;;;6.53;4.30;;;0.20;99.90;;;;;;5011722;28;20637;-63
2024/03/18 02:37:45;;;;;;;4.87;3.00;;;0.20;99.90;;;;;;5011926;28;20272;-64
2024/03/18 02:40:12;;;;;;;4.77;3.50;;;0.20;99.90;;;;;;5011865;28;20204;-64
2024/03/18 02:42:40;;;;;;;7.00;3.50;;;0.10;99.90;;;;;;5012024;28;20547;-64
2024/03/18 02:45:11;;;;;;;4.27;3.20;;;0.20;99.90;;;;;;5011850;28;20766;-63
2024/03/18 02:47:37;;;;;;;5.27;4.70;;;0.10;99.90;;;;;;5012133;28;20807;-64
2024/03/18 02:50:03;;;;;;;5.90;3.53;;;0.10;99.90;;;;;;5011884;28;20813;-64
2024/03/18 02:52:28;;;;;;;5.17;4.10;;;0.10;99.90;;;;;;5011857;28;20522;-64
2024/03/18 02:54:54;;;;;;;6.13;3.07;;;0.10;99.90;;;;;;5011269;28;20554;-63
2024/03/18 02:57:20;;;;;;;3.70;3.40;;;0.10;99.90;;;;;;5011723;28;20180;-62
2024/03/18 02:59:46;;;;;;;6.90;3.17;;;0.00;99.90;;;;;;5011524;28;20196;-62
2024/03/18 03:02:11;;;;;;;4.93;3.70;;;0.00;99.90;;;;;;5011151;28;20916;-62
2024/03/18 03:04:37;;;;;;;7.60;2.80;;;0.00;99.90;;;;;;5011108;28;20333;-63
2024/03/18 03:07:03;;;;;;;2.87;2.53;;;0.00;99.90;;;;;;5011279;28;20685;-62
2024/03/18 03:09:28;;;;;;;5.30;3.60;;;0.00;99.90;;;;;;5010351;28;20539;-63
2024/03/18 03:11:54;;;;;;;4.03;3.13;;;-0.10;99.90;;;;;;5010834;28;20258;-63
2024/03/18 03:14:20;;;;;;;2.50;2.30;;;-0.10;99.90;;;;;;5010873;28;20338;-62
2024/03/18 03:16:46;;;;;;;5.00;2.97;;;-0.10;99.90;;;;;;5010049;28;20175;-63
2024/03/18 03:19:11;;;;;;;3.73;2.80;;;-0.10;99.90;;;;;;5010679;28;20203;-62
2024/03/18 03:21:37;;;;;;;3.40;2.70;;;-0.10;99.90;;;;;;5011174;28;20192;-62
2024/03/18 03:24:03;;;;;;;3.47;3.13;;;-0.10;99.90;;;;;;5010853;28;20188;-62
2024/03/18 03:26:29;;;;;;;2.20;1.93;;;-0.10;99.90;;;;;;5011293;28;20192;-62
2024/03/18 03:28:55;;;;;;;2.60;2.37;;;-0.10;99.90;;;;;;5010686;28;20537;-62
2024/03/18 03:31:21;;;;;;;3.40;2.77;;;-0.10;99.90;;;;;;5010722;28;20489;-64
2024/03/18 03:33:47;;;;;;;2.20;2.00;;;-0.10;99.90;;;;;;5010646;28;20458;-63
2024/03/18 03:36:12;;;;;;;5.97;3.07;;;-0.10;99.90;;;;;;5010151;28;20228;-63
2024/03/18 03:38:38;;;;;;;3.13;2.23;;;-0.10;99.90;;;;;;5010615;28;20298;-62
2024/03/18 03:41:04;;;;;;;2.83;2.50;;;-0.10;99.90;;;;;;5010287;28;20215;-62
2024/03/18 03:43:29;;;;;;;3.00;2.40;;;-0.20;99.90;;;;;;5010335;28;20188;-63
2024/03/18 03:45:58;;;;;;;4.00;3.10;;;-0.20;99.90;;;;;;5010095;28;20608;-63
2024/03/18 03:48:24;;;;;;;3.13;2.77;;;-0.20;99.90;;;;;;5003068;28;20273;-62
2024/03/18 03:50:51;;;;;;;3.03;2.30;;;-0.20;99.90;;;;;;5010643;28;20562;-62
2024/03/18 03:53:20;;;;;;;3.03;2.73;;;-0.20;99.90;;;;;;5011062;28;20910;-62
2024/03/18 03:55:46;;;;;;;4.70;2.90;;;-0.20;99.90;;;;;;5011296;28;20509;-63
2024/03/18 03:58:12;;;;;;;5.00;2.47;;;-0.20;99.90;;;;;;5011651;28;20502;-65
2024/03/18 04:00:47;;;;;;;4.50;3.07;;;-0.20;99.90;;;;;;5011285;28;20632;-65
2024/03/18 04:03:15;;;;;;;3.57;2.90;;;-0.20;99.90;;;;;;5010718;28;20422;-63
2024/03/18 04:05:41;;;;;;;3.30;2.20;;;-0.20;99.90;;;;;;5010204;28;20426;-64
2024/03/18 04:08:07;;;;;;;2.57;2.37;;;-0.30;99.90;;;;;;5010082;28;20415;-62
2024/03/18 04:10:32;;;;;;;3.00;2.57;;;-0.20;99.90;;;;;;5010401;28;20172;-62
2024/03/18 04:12:58;;;;;;;3.00;2.80;;;-0.20;99.90;;;;;;5010583;28;20176;-61
2024/03/18 04:15:24;;;;;;;3.50;2.07;;;-0.20;99.90;;;;;;5010568;28;20239;-62
2024/03/18 04:17:50;;;;;;;4.07;2.70;;;-0.30;99.90;;;;;;5010415;28;20442;-62
2024/03/18 04:20:21;;;;;;;6.00;2.47;;;-0.30;99.90;;;;;;5009955;28;20658;-62
2024/03/18 04:22:48;;;;;;;5.20;3.00;;;-0.30;99.90;;;;;;5009175;28;20866;-62
2024/03/18 04:25:14;;;;;;;2.50;2.17;;;-0.30;99.90;;;;;;5009938;28;20423;-62
2024/03/18 04:27:43;;;;;;;2.23;2.00;;;-0.30;99.90;;;;;;5010017;28;20427;-62
2024/03/18 04:30:13;;;;;;;4.87;2.43;;;-0.30;99.90;;;;;;5009331;28;20925;-62
2024/03/18 04:32:40;;;;;;;3.80;2.47;;;-0.30;99.90;;;;;;5006209;28;20415;-62
2024/03/18 04:35:06;;;;;;;5.47;2.40;;;-0.20;99.90;;;;;;5009528;28;20463;-62
2024/03/18 04:37:39;;;;;;;3.70;2.43;;;-0.20;99.90;;;;;;5009418;28;20929;-62
2024/03/18 04:40:06;;;;;;;2.53;2.30;;;-0.30;99.90;;;;;;5009560;28;20562;-62
2024/03/18 04:42:33;;;;;;;4.00;2.60;;;-0.30;99.90;;;;;;4991941;28;20427;-62
2024/03/18 04:44:59;;;;;;;4.27;2.77;;;-0.30;99.90;;;;;;5009825;28;20423;-63
2024/03/18 04:47:26;;;;;;;4.50;3.00;;;-0.30;99.90;;;;;;5001890;28;20427;-63
2024/03/18 04:49:52;;;;;;;6.10;2.50;;;-0.30;99.90;;;;;;5009533;28;20299;-63
2024/03/18 04:52:19;;;;;;;2.83;2.07;;;-0.30;99.90;;;;;;5009332;28;20593;-62
2024/03/18 04:54:44;;;;;;;4.77;2.70;;;-0.30;99.90;;;;;;5009382;28;20634;-63
2024/03/18 04:57:10;;;;;;;3.53;2.50;;;-0.30;99.90;;;;;;5009299;28;20600;-63
2024/03/18 04:59:36;;;;;;;3.00;2.80;;;-0.30;99.90;;;;;;5009544;28;20653;-62
2024/03/18 05:02:02;;;;;;;3.50;2.57;;;-0.30;99.90;;;;;;5009239;28;20266;-63
2024/03/18 05:04:27;;;;;;;2.70;2.37;;;-0.40;99.90;;;;;;5009353;28;21005;-63
2024/03/18 05:06:53;;;;;;;2.73;2.53;;;-0.30;99.90;;;;;;5009614;28;20188;-64
2024/03/18 05:09:20;;;;;;;6.03;2.80;;;-0.40;99.90;;;;;;5009127;28;20204;-65
2024/03/18 05:11:45;;;;;;;3.27;2.13;;;-0.40;99.90;;;;;;5008927;28;20184;-64
2024/03/18 05:14:11;;;;;;;3.90;2.90;;;-0.40;99.90;;;;;;5009317;28;20473;-62
2024/03/18 05:16:39;;;;;;;2.30;2.10;;;-0.40;99.90;;;;;;5009640;28;20180;-62
2024/03/18 05:19:05;;;;;;;2.87;2.17;;;-0.40;99.90;;;;;;5009684;28;20296;-62
2024/03/18 05:21:31;;;;;;;2.80;2.37;;;-0.40;99.90;;;;;;5009507;28;20523;-64
2024/03/18 05:23:57;;;;;;;5.93;3.60;;;-0.40;99.90;;;;;;5009677;28;20530;-63
2024/03/18 05:26:23;;;;;;;2.40;2.20;;;-0.30;99.90;;;;;;5009276;28;20518;-64
2024/03/18 05:28:48;;;;;;;3.03;2.50;;;-0.30;99.90;;;;;;5010364;28;20675;-63
2024/03/18 05:31:14;;;;;;;4.87;2.60;;;-0.30;99.90;;;;;;5009107;28;20730;-63
2024/03/18 05:33:39;;;;;;;5.63;2.67;;;-0.30;99.90;;;;;;5011130;28;20224;-63
2024/03/18 05:36:05;;;;;;;3.30;2.87;;;-0.30;99.90;;;;;;5013094;28;20217;-64
2024/03/18 05:38:31;;;;;;;3.27;2.30;;;-0.30;99.90;;;;;;5013266;28;20537;-64
2024/03/18 05:40:56;;;;;;;4.10;2.40;;;-0.30;99.90;;;;;;5012981;28;20423;-64
2024/03/18 05:43:24;;;;;;;3.37;2.30;;;-0.20;99.90;;;;;;5012872;28;20192;-63
2024/03/18 05:45:49;;;;;;;4.60;2.90;;;-0.20;99.90;;;;;;5012933;28;20185;-64
2024/03/18 05:48:15;;;;;;;2.47;2.27;;;-0.10;99.90;;;;;;5012705;28;20513;-64
2024/03/18 05:50:40;;;;;;;3.83;2.50;;;-0.10;99.90;;;;;;5012914;28;20176;-64
2024/03/18 05:53:07;;;;;;;3.37;2.60;;;-0.10;99.90;;;;;;5012962;28;20690;-64
2024/03/18 05:55:32;;;;;;;4.00;2.57;;;0.00;99.90;;;;;;5017420;28;20786;-64
2024/03/18 05:58:02;;;;;;;2.63;2.43;;;0.00;99.90;;;;;;5012045;28;20514;-64
2024/03/18 06:00:29;;;;;;;3.30;2.67;;;0.10;99.90;;;;;;5012368;28;20583;-64
2024/03/18 06:02:54;;;;;;;8.30;2.50;;;0.20;99.90;;;;;;5012789;28;20538;-64
2024/03/18 06:05:20;;;;;;;2.60;2.40;;;0.30;99.90;;;;;;5012557;28;20427;-64
2024/03/18 06:07:46;;;;;;;2.70;2.50;;;0.40;99.90;;;;;;5012699;28;20334;-64
2024/03/18 06:10:11;;;;;;;2.57;2.10;;;0.60;99.90;;;;;;5012346;28;20219;-63
2024/03/18 06:12:37;;;;;;;5.57;2.60;;;0.90;99.90;;;;;;5012736;28;20187;-62
2024/03/18 06:15:02;;;;;;;3.20;2.57;;;1.40;99.90;;;;;;5012588;28;20306;-63
2024/03/18 06:17:29;;;;;;;2.53;2.23;;;1.90;99.90;;;;;;5012431;28;20180;-63
2024/03/18 06:19:57;;;;;;;2.17;2.07;;;1.90;99.90;;;;;;5012352;28;20231;-64
2024/03/18 06:22:24;;;;;;;2.53;2.23;;;2.30;99.90;;;;;;5011708;28;20510;-64
2024/03/18 06:27:34;;;;;;;5.20;2.67;;;2.70;99.90;;;;;;5009939;28;20430;-63
2024/03/18 06:29:59;;;;;;;4.87;2.50;;;3.00;99.90;;;;;;5011337;28;20503;-63
2024/03/18 06:32:25;;;;;;;5.40;2.03;;;3.40;99.90;;;;;;5011746;28;20743;-63
2024/03/18 06:34:51;;;;;;;2.90;1.90;;;4.00;99.90;;;;;;5011539;28;20203;-64
2024/03/18 06:37:17;;;;;;;6.80;1.90;;;4.60;99.90;;;;;;5011460;28;20185;-64
2024/03/18 06:39:43;;;;;;;2.90;2.50;;;4.90;99.90;;;;;;5007403;28;20192;-63
2024/03/18 06:42:09;;;;;;;2.87;2.23;;;4.70;99.90;;;;;;5011332;28;20533;-63
2024/03/18 06:44:35;;;;;;;4.03;2.07;;;4.20;99.90;;;;;;5011071;28;20185;-63
2024/03/18 06:47:00;;;;;;;2.27;1.97;;;4.00;99.90;;;;;;5011917;28;20429;-62
2024/03/18 06:49:26;;;;;;;2.10;1.70;;;4.00;99.90;;;;;;5011098;28;20284;-62
2024/03/18 06:51:52;;;;;;;3.77;2.00;;;4.20;99.90;;;;;;5011828;28;20216;-64
2024/03/18 06:54:17;;;;;;;2.83;1.70;;;4.20;99.90;;;;;;5011291;28;20219;-62
2024/03/18 06:56:43;;;;;;;3.27;2.40;;;3.80;99.90;;;;;;5011585;28;20194;-63
2024/03/18 06:59:09;;;;;;;2.20;2.00;;;3.90;99.90;;;;;;5011546;28;20246;-62
2024/03/18 07:01:34;;;;;;;2.17;1.60;;;4.10;99.90;;;;;;5011314;28;20200;-63
2024/03/18 07:04:00;;;;;;;2.63;1.80;;;3.90;99.90;;;;;;5011456;28;20760;-61
2024/03/18 07:06:26;;;;;;;2.03;1.57;;;4.20;99.90;;;;;;5011550;28;20674;-61
2024/03/18 07:08:52;;;;;;;2.23;1.67;;;4.60;99.90;;;;;;5011619;28;20207;-55
2024/03/18 07:11:17;;;;;;;1.47;1.37;;;4.80;99.90;;;;;;5010969;28;20189;-60
2024/03/18 07:13:43;;;;;;;1.80;1.50;;;4.80;99.90;;;;;;5011229;28;20196;-60
2024/03/18 07:16:09;;;;;;;2.40;1.80;;;5.20;99.90;;;;;;5011151;28;20447;-72
2024/03/18 07:18:34;;;;;;;3.20;2.30;;;5.70;99.90;;;;;;5011243;28;20553;-63
2024/03/18 07:21:00;;;;;;;1.53;1.43;;;5.50;99.90;;;;;;5011118;28;20226;-68
2024/03/18 07:23:25;;;;;;;2.40;1.90;;;5.30;99.90;;;;;;5011105;28;20316;-62
2024/03/18 07:25:51;;;;;;;1.50;1.40;;;5.40;99.90;;;;;;5010335;28;20186;-65
2024/03/18 07:28:17;;;;;;;1.97;1.43;;;5.40;99.90;;;;;;4996520;28;20289;-62
2024/03/18 07:30:46;;;;;;;1.97;1.20;;;5.40;99.90;;;;;;5010535;28;20546;-63
2024/03/18 07:33:12;;;;;;;1.53;1.27;;;5.90;99.90;;;;;;5010689;28;20186;-65
2024/03/18 07:35:37;;;;;;;2.47;1.50;;;6.40;99.80;;;;;;5011478;28;20429;-61
2024/03/18 07:38:03;;;;;;;2.87;1.40;;;6.10;98.80;;;;;;5011455;28;20269;-63
2024/03/18 07:40:29;;;;;;;1.73;1.50;;;6.20;96.80;;;;;;5010604;28;20191;-67
2024/03/18 07:42:54;;;;;;;2.30;1.47;;;6.70;96.20;;;;;;5010697;28;20474;-63
2024/03/18 07:45:20;;;;;;;1.60;1.50;;;6.60;94.40;;;;;;5010382;28;20184;-62
2024/03/18 07:47:46;;;;;;;3.57;1.70;;;6.40;94.20;;;;;;5010443;28;20267;-62
2024/03/18 07:50:11;;;;;;;2.53;1.60;;;6.50;95.40;;;;;;5010127;28;20212;-62
2024/03/18 07:52:37;;;;;;;1.60;1.33;;;7.20;94.00;;;;;;5010568;28;20188;-62
2024/03/18 07:55:02;;;;;;;1.27;1.10;;;7.20;91.00;;;;;;5010453;28;20208;-63
2024/03/18 07:57:28;;;;;;;1.10;0.93;;;7.40;90.50;;;;;;5010244;28;20279;-63
2024/03/18 07:59:54;;;;;;;1.43;0.83;;;7.90;87.10;;;;;;5010533;28;20766;-61
2024/03/18 08:02:20;;;;;;;1.43;0.93;;;8.00;83.50;;;;;;5009939;28;20195;-62
2024/03/18 08:04:46;;;;;;;1.40;1.30;;;7.90;84.80;;;;;;5009899;28;20477;-62
2024/03/18 08:07:11;;;;;;;1.63;1.10;;;8.10;82.80;;;;;;5009463;28;20184;-64
2024/03/18 08:09:37;;;;;;;0.93;0.93;;;7.90;81.10;;;;;;5010845;28;20664;-64
2024/03/18 08:12:03;;;;;;;1.10;0.93;;;7.50;80.00;;;;;;5010415;28;20268;-63
2024/03/18 08:14:28;;;;;;;3.33;1.10;;;7.10;82.00;;;;;;5009795;28;20215;-63
2024/03/18 08:16:55;;;;;;;1.23;1.13;;;7.00;80.50;;;;;;5010224;28;20427;-62
2024/03/18 08:19:21;;;;;;;1.00;0.90;;;7.00;80.00;;;;;;5010094;28;20207;-63
2024/03/18 08:21:46;;;;;;;1.00;0.87;;;6.90;77.70;;;;;;5010726;28;20909;-63
2024/03/18 08:24:12;;;;;;;0.90;0.90;;;7.10;80.40;;;;;;5009274;28;20184;-63
2024/03/18 08:26:37;;;;;;;1.43;0.90;;;7.40;78.10;;;;;;5009001;28;20556;-62
2024/03/18 08:29:03;;;;;;;0.90;0.83;;;7.40;76.70;;;;;;5009500;28;20587;-63
2024/03/18 08:31:31;;;;;;;3.10;1.37;;;7.40;76.30;;;;;;5010019;28;20199;-61
2024/03/18 08:33:58;;;;;;;1.10;1.00;;;7.80;75.70;;;;;;5010217;28;20401;-62
2024/03/18 08:36:24;;;;;;;1.60;1.10;;;7.70;75.70;;;;;;5009440;28;20429;-63
2024/03/18 08:38:50;;;;;;;0.80;0.80;;;7.80;77.80;;;;;;5009641;28;20436;-60
2024/03/18 08:41:16;;;;;;;1.77;0.97;;;8.00;76.60;;;;;;5008195;28;20252;-62
2024/03/18 08:43:41;;;;;;;1.37;1.00;;;9.00;74.60;;;;;;5008608;28;20430;-63
2024/03/18 08:46:08;;;;;;;1.17;0.80;;;9.80;71.20;;;;;;5007818;28;20200;-63
2024/03/18 08:48:36;;;;;;;1.07;0.90;;;9.40;68.00;;;;;;5010081;28;20736;-63
2024/03/18 08:51:04;;;;;;;1.87;1.20;;;9.30;67.10;;;;;;5010976;28;20431;-62
2024/03/18 08:53:29;;;;;;;1.30;1.00;;;9.50;66.80;;;;;;5010992;28;20577;-63
2024/03/18 08:55:55;;;;;;;1.73;1.40;;;9.30;68.10;;;;;;5010347;28;20562;-63
2024/03/18 08:58:24;;;;;;;1.00;0.90;;;9.20;66.70;;;;;;5010840;28;20291;-62
2024/03/18 09:00:54;;;;;;;1.20;1.10;;;8.90;67.40;;;;;;4993136;28;20431;-62
2024/03/18 09:03:19;;;;;;;1.10;1.00;;;8.90;68.40;;;;;;5010859;28;20561;-63
2024/03/18 09:05:55;;;;;;;21.97;11.40;;;8.30;68.20;;;;;;5010960;28;20463;-63
2024/03/18 09:08:24;;;;;;;5.20;3.50;;;7.90;69.60;;;;;;5010170;28;20218;-62
2024/03/18 09:10:49;;;;;;;2.77;2.13;;;7.90;70.60;;;;;;5010646;28;20510;-62
2024/03/18 09:13:15;;;;;;;1.87;1.40;;;7.80;70.20;;;;;;5010066;28;20501;-64
2024/03/18 09:15:41;;;;;;;1.60;1.37;;;7.60;69.80;;;;;;5011342;28;20191;-63
2024/03/18 09:18:07;;;;;;;1.67;1.30;;;7.50;72.30;;;;;;5008689;28;20449;-63
2024/03/18 09:20:32;;;;;;;1.50;1.10;;;7.60;71.30;;;;;;5008308;28;20183;-64
2024/03/18 09:22:58;;;;;;;1.90;0.90;;;7.30;72.50;;;;;;5008622;28;20595;-62
2024/03/18 09:25:23;;;;;;;2.50;1.00;;;6.90;73.60;;;;;;5008551;28;20195;-61
2024/03/18 09:27:49;;;;;;;0.97;0.90;;;7.00;74.70;;;;;;5008851;28;20228;-63
2024/03/18 09:30:17;;;;;;;3.40;0.90;;;7.20;74.10;;;;;;4996473;28;20200;-64
2024/03/18 09:32:43;;;;;;;2.13;1.10;;;7.10;75.10;;;;;;5008289;28;20670;-63
2024/03/18 09:35:09;;;;;;;2.97;1.00;;;7.40;73.60;;;;;;5008738;28;20580;-63
2024/03/18 09:37:35;;;;;;;2.50;1.27;;;7.50;73.10;;;;;;5008271;28;20183;-61
2024/03/18 09:40:01;;;;;;;1.67;1.20;;;7.60;73.20;;;;;;5008424;28;20221;-61
2024/03/18 09:42:29;;;;;;;1.47;1.10;;;8.00;74.60;;;;;;5008071;28;20511;-61
2024/03/18 09:44:54;;;;;;;1.20;1.10;;;8.20;73.30;;;;;;5007327;28;20646;-62
2024/03/18 09:47:22;;;;;;;1.87;1.00;;;8.20;72.00;;;;;;5007870;28;20481;-59
2024/03/18 09:49:52;;;;;;;1.43;1.20;;;8.00;71.60;;;;;;5007979;28;20773;-62
2024/03/18 09:52:19;;;;;;;3.13;1.53;;;8.10;74.10;;;;;;5007892;28;20449;-63
2024/03/18 09:54:49;;;;;;;1.57;1.47;;;8.20;72.10;;;;;;5008103;28;20933;-61
2024/03/18 09:57:17;;;;;;;4.70;1.33;;;8.20;71.50;;;;;;5008015;28;20904;-61
2024/03/18 09:59:43;;;;;;;2.30;1.30;;;7.80;73.20;;;;;;5007071;28;20463;-62
2024/03/18 10:02:19;;;;;;;1.33;1.20;;;7.40;73.60;;;;;;5010171;28;20952;-64
2024/03/18 10:04:45;;;;;;;1.90;1.20;;;7.20;73.80;;;;;;5007504;28;20796;-63
2024/03/18 10:07:12;;;;;;;1.27;0.90;;;6.80;74.40;;;;;;5008065;28;20766;-62
2024/03/18 10:09:37;;;;;;;1.63;1.10;;;6.30;76.90;;;;;;5008856;28;20434;-64
2024/03/18 10:12:03;;;;;;;1.27;1.00;;;6.40;77.00;;;;;;5007879;28;20907;-63
2024/03/18 10:14:29;;;;;;;1.67;1.17;;;6.20;78.50;;;;;;5008777;28;20219;-63
2024/03/18 10:16:56;;;;;;;1.27;1.17;;;6.30;77.40;;;;;;5013280;28;20419;-63
2024/03/18 10:19:22;;;;;;;1.40;1.30;;;6.30;78.10;;;;;;5009084;28;20211;-62
2024/03/18 10:21:47;;;;;;;0.90;0.90;;;6.00;79.20;;;;;;5010480;28;20414;-61
2024/03/18 10:24:16;;;;;;;1.50;1.20;;;6.00;79.70;;;;;;5011485;28;20222;-62
2024/03/18 10:26:45;;;;;;;5.47;1.40;;;5.70;81.80;;;;;;5012221;28;20635;-63
2024/03/18 10:29:11;;;;;;;1.57;1.00;;;5.80;83.70;;;;;;5011601;28;20842;-63
2024/03/18 10:31:40;;;;;;;13.13;9.30;;;5.80;82.50;;;;;;5011751;28;20470;-68
2024/03/18 10:34:06;;;;;;;2.10;1.10;;;6.20;87.40;;;;;;5011783;28;20553;-60
2024/03/18 10:36:35;;;;;;;1.53;1.20;;;6.00;83.90;;;;;;5007317;28;20416;-62
2024/03/18 10:39:08;;;;;;;1.20;1.00;;;6.30;85.10;;;;;;5011776;28;20465;-62
2024/03/18 10:41:39;;;;;;;2.30;1.20;;;6.20;83.40;;;;;;5011362;28;20543;-61
2024/03/18 10:44:17;;;;;;;3.13;1.50;;;6.30;82.50;;;;;;5006582;28;20423;-60
2024/03/18 10:46:44;;;;;;;1.43;1.13;;;6.50;83.30;;;;;;5011924;28;20853;-62
2024/03/18 10:49:18;;;;;;;1.60;1.30;;;6.40;82.60;;;;;;5012059;28;20483;-63
2024/03/18 10:51:51;;;;;;;1.30;1.20;;;6.60;83.60;;;;;;5012192;28;20929;-65
2024/03/18 10:54:17;;;;;;;30.40;20.07;;;6.20;80.30;;;;;;5011971;28;20478;-62
2024/03/18 10:56:44;;;;;;;7.90;5.00;;;6.40;91.80;;;;;;5011197;28;20423;-63
2024/03/18 10:59:16;;;;;;;1.60;1.50;;;6.50;89.20;;;;;;5011228;28;20488;-61
2024/03/18 11:01:42;;;;;;;2.90;1.40;;;6.50;81.90;;;;;;5010988;28;20435;-62
2024/03/18 11:04:38;;;;;;;1.67;1.47;;;6.30;80.80;;;;;;5011502;28;20776;-60
2024/03/18 11:07:05;;;;;;;2.23;1.43;;;6.30;79.00;;;;;;5009838;28;20443;-62
2024/03/18 11:09:31;;;;;;;1.30;1.20;;;6.40;80.60;;;;;;5011400;28;20451;-61
2024/03/18 11:11:57;;;;;;;1.53;1.20;;;6.60;78.00;;;;;;5011719;28;21101;-61
2024/03/18 11:14:27;;;;;;;1.70;1.60;;;6.40;75.20;;;;;;5011186;28;20466;-63
2024/03/18 11:16:53;;;;;;;1.60;1.23;;;6.60;77.00;;;;;;5011682;28;20288;-60
2024/03/18 11:19:21;;;;;;;1.47;1.13;;;6.60;77.00;;;;;;5011409;28;20487;-62
2024/03/18 11:22:04;;;;;;;1.30;1.00;;;6.60;78.10;;;;;;5011382;28;20423;-62
2024/03/18 11:24:31;;;;;;;2.13;1.77;;;6.50;79.40;;;;;;5011279;28;20427;-63
2024/03/18 11:26:58;;;;;;;1.40;1.07;;;6.60;79.00;;;;;;5011445;28;20981;-62
2024/03/18 11:29:55;;;;;;;1.27;1.17;;;6.50;76.90;;;;;;5011207;28;20459;-65
2024/03/18 11:32:21;;;;;;;1.60;1.17;;;6.70;76.40;;;;;;5010615;28;20439;-61
2024/03/18 11:34:57;;;;;;;1.80;1.20;;;6.50;75.10;;;;;;5011404;28;20997;-64
2024/03/18 11:37:22;;;;;;;2.60;1.50;;;6.70;76.20;;;;;;5011335;28;20184;-63
2024/03/18 11:39:48;;;;;;;1.53;1.27;;;6.90;76.50;;;;;;5010778;28;20537;-60
2024/03/18 11:42:14;;;;;;;1.87;1.20;;;6.90;76.40;;;;;;5011419;28;20648;-61
2024/03/18 11:44:48;;;;;;;4.77;1.37;;;6.70;77.40;;;;;;5007944;28;20430;-62
2024/03/18 11:47:14;;;;;;;1.50;1.30;;;6.80;77.10;;;;;;5006604;28;20238;-61
2024/03/18 11:49:39;;;;;;;1.10;1.00;;;6.90;77.30;;;;;;5010985;28;20622;-63
2024/03/18 11:52:05;;;;;;;1.23;1.13;;;7.10;76.20;;;;;;5011177;28;20275;-62
2024/03/18 11:54:31;;;;;;;1.70;1.60;;;7.00;75.40;;;;;;5010320;28;20208;-62
2024/03/18 11:57:04;;;;;;;1.93;1.20;;;7.10;75.80;;;;;;5010576;28;20648;-62
2024/03/18 11:59:30;;;;;;;1.60;1.50;;;7.20;74.60;;;;;;5010389;28;20283;-62
2024/03/18 12:01:58;;;;;;;1.57;1.47;;;7.10;74.30;;;;;;5010342;28;20511;-62
2024/03/18 12:04:24;;;;;;;1.90;1.10;;;7.10;76.00;;;;;;4992380;28;20184;-61
2024/03/18 12:06:49;;;;;;;2.80;1.53;;;7.10;76.80;;;;;;5010042;28;20781;-62
2024/03/18 12:09:16;;;;;;;2.23;1.20;;;7.40;76.90;;;;;;5009900;28;20447;-61
2024/03/18 12:11:43;;;;;;;1.87;1.43;;;7.50;75.70;;;;;;5010089;28;20822;-62
2024/03/18 12:14:09;;;;;;;1.40;1.30;;;7.60;74.50;;;;;;5010026;28;20957;-63
2024/03/18 12:16:36;;;;;;;1.73;1.10;;;7.60;74.60;;;;;;5009827;28;20433;-63
2024/03/18 12:19:07;;;;;;;1.17;1.07;;;7.60;75.40;;;;;;5009849;28;20533;-62
2024/03/18 12:21:39;;;;;;;1.57;1.20;;;7.50;73.10;;;;;;5009993;28;20515;-62
2024/03/18 12:29:37;;;;;;;1.40;1.10;;;7.50;74.30;;;;;;5009676;28;20474;-63
2024/03/18 12:32:04;;;;;;;1.40;1.30;;;7.40;74.00;;;;;;5009723;28;20453;-63
2024/03/18 12:34:30;;;;;;;2.10;1.70;;;7.40;75.40;;;;;;5009506;28;20533;-61
2024/03/18 12:36:59;;;;;;;2.97;1.57;;;7.50;75.30;;;;;;5010012;28;20826;-61
2024/03/18 12:39:28;;;;;;;1.87;1.00;;;7.30;75.90;;;;;;5009456;28;20440;-63
2024/03/18 12:41:59;;;;;;;2.00;1.27;;;7.40;74.40;;;;;;5009477;28;20424;-61
2024/03/18 12:44:25;;;;;;;1.30;1.10;;;7.20;74.30;;;;;;5008993;28;20420;-62
2024/03/18 12:46:51;;;;;;;1.17;1.07;;;7.10;74.50;;;;;;5009242;28;20420;-67
2024/03/18 12:49:16;;;;;;;2.00;1.50;;;7.10;75.00;;;;;;5009515;28;20528;-61
2024/03/18 12:51:42;;;;;;;1.20;1.10;;;7.00;75.10;;;;;;5009297;28;20212;-62
2024/03/18 12:54:08;;;;;;;1.43;1.33;;;7.00;75.50;;;;;;5008883;28;20669;-58
2024/03/18 12:56:34;;;;;;;2.10;1.17;;;7.10;75.10;;;;;;5009107;28;20219;-61
2024/03/18 12:59:00;;;;;;;1.60;1.00;;;7.30;75.90;;;;;;5009400;28;20890;-59
2024/03/18 13:01:25;;;;;;;1.57;1.20;;;7.30;75.50;;;;;;5009310;28;20564;-62